<?xml version="1.0" encoding="utf-8"?>
<gpx xmlns:xsi="http://www.w3.org/2001/XMLSchema-instance" xmlns:xsd="http://www.w3.org/2001/XMLSchema" version="1.1" creator="Shapelink.com" xmlns="http://www.topografix.com/GPX/1/1" xmlns:gpxtpx="http://www.garmin.com/xmlschemas/TrackPointExtension/v1">
  <metadata>
    <name>Løping 3.47 km, 2018-11-23</name>
    <desc></desc>
    <author><name>Stefan Östlund</name></author> 
    <time>2018-11-23T14:48:47Z</time>
  </metadata>
  <trk>
    <name>Løping 3.47 km, 2018-11-23</name>
    <trkseg>
      <trkpt lat="59.985967733698" lon="15.822369215691">
        <ele>80.2</ele>
        <time>2018-11-23T14:48:47Z</time>
      </trkpt>
      <trkpt lat="59.985924650732" lon="15.822326468001">
        <ele>81.2</ele>
        <time>2018-11-23T14:48:50Z</time>
      </trkpt>
      <trkpt lat="59.98579238435" lon="15.822227980676">
        <ele>81</ele>
        <time>2018-11-23T14:48:56Z</time>
      </trkpt>
      <trkpt lat="59.985654669733" lon="15.822200320406">
        <ele>80.6</ele>
        <time>2018-11-23T14:49:02Z</time>
      </trkpt>
      <trkpt lat="59.985522822446" lon="15.822170732299">
        <ele>80.4</ele>
        <time>2018-11-23T14:49:08Z</time>
      </trkpt>
      <trkpt lat="59.985487786104" lon="15.822191267954">
        <ele>80.4</ele>
        <time>2018-11-23T14:49:11Z</time>
      </trkpt>
      <trkpt lat="59.985467669544" lon="15.82219244142">
        <ele>80.4</ele>
        <time>2018-11-23T14:49:13Z</time>
      </trkpt>
      <trkpt lat="59.985445708966" lon="15.822103509461">
        <ele>80.6</ele>
        <time>2018-11-23T14:49:16Z</time>
      </trkpt>
      <trkpt lat="59.985413187194" lon="15.821851968642">
        <ele>80.6</ele>
        <time>2018-11-23T14:49:22Z</time>
      </trkpt>
      <trkpt lat="59.985339007379" lon="15.821581987643">
        <ele>80.8</ele>
        <time>2018-11-23T14:49:28Z</time>
      </trkpt>
      <trkpt lat="59.985303216666" lon="15.821426671036">
        <ele>80.6</ele>
        <time>2018-11-23T14:49:31Z</time>
      </trkpt>
      <trkpt lat="59.985244040452" lon="15.821176136045">
        <ele>80.6</ele>
        <time>2018-11-23T14:49:37Z</time>
      </trkpt>
      <trkpt lat="59.985233479258" lon="15.821135651468">
        <ele>80.6</ele>
        <time>2018-11-23T14:49:39Z</time>
      </trkpt>
      <trkpt lat="59.985202801504" lon="15.821129365043">
        <ele>80.6</ele>
        <time>2018-11-23T14:49:44Z</time>
      </trkpt>
      <trkpt lat="59.985213781793" lon="15.821123916808">
        <ele>80.4</ele>
        <time>2018-11-23T14:49:50Z</time>
      </trkpt>
      <trkpt lat="59.985164077126" lon="15.821156941494">
        <ele>80.8</ele>
        <time>2018-11-23T14:49:55Z</time>
      </trkpt>
      <trkpt lat="59.985010436899" lon="15.821261966701">
        <ele>80.8</ele>
        <time>2018-11-23T14:50:00Z</time>
      </trkpt>
      <trkpt lat="59.984871716454" lon="15.821323154571">
        <ele>81</ele>
        <time>2018-11-23T14:50:06Z</time>
      </trkpt>
      <trkpt lat="59.984879846897" lon="15.821608642085">
        <ele>80.8</ele>
        <time>2018-11-23T14:50:12Z</time>
      </trkpt>
      <trkpt lat="59.984896945973" lon="15.821888932821">
        <ele>80.8</ele>
        <time>2018-11-23T14:50:18Z</time>
      </trkpt>
      <trkpt lat="59.984929467745" lon="15.8221522083">
        <ele>80.4</ele>
        <time>2018-11-23T14:50:24Z</time>
      </trkpt>
      <trkpt lat="59.984948243201" lon="15.822421854023">
        <ele>80.4</ele>
        <time>2018-11-23T14:50:30Z</time>
      </trkpt>
      <trkpt lat="59.98496425263" lon="15.822646656581">
        <ele>80.8</ele>
        <time>2018-11-23T14:50:36Z</time>
      </trkpt>
      <trkpt lat="59.984972466892" lon="15.822746233553">
        <ele>81.4</ele>
        <time>2018-11-23T14:50:39Z</time>
      </trkpt>
      <trkpt lat="59.984991493805" lon="15.822896269563">
        <ele>81.6</ele>
        <time>2018-11-23T14:50:45Z</time>
      </trkpt>
      <trkpt lat="59.985020159903" lon="15.823163149259">
        <ele>81.4</ele>
        <time>2018-11-23T14:50:51Z</time>
      </trkpt>
      <trkpt lat="59.985046227612" lon="15.823449307325">
        <ele>81.6</ele>
        <time>2018-11-23T14:50:57Z</time>
      </trkpt>
      <trkpt lat="59.985005156302" lon="15.823687856199">
        <ele>82</ele>
        <time>2018-11-23T14:51:03Z</time>
      </trkpt>
      <trkpt lat="59.984999205153" lon="15.823698082117">
        <ele>82</ele>
        <time>2018-11-23T14:51:04Z</time>
      </trkpt>
      <trkpt lat="59.984998869877" lon="15.823650137649">
        <ele>82.4</ele>
        <time>2018-11-23T14:51:09Z</time>
      </trkpt>
      <trkpt lat="59.984996774402" lon="15.823642007206">
        <ele>82.2</ele>
        <time>2018-11-23T14:51:13Z</time>
      </trkpt>
      <trkpt lat="59.984993337823" lon="15.823636558971">
        <ele>82</ele>
        <time>2018-11-23T14:51:19Z</time>
      </trkpt>
      <trkpt lat="59.984993421642" lon="15.823624572854">
        <ele>82.2</ele>
        <time>2018-11-23T14:51:25Z</time>
      </trkpt>
      <trkpt lat="59.98499945661" lon="15.823592302539">
        <ele>82.2</ele>
        <time>2018-11-23T14:51:31Z</time>
      </trkpt>
      <trkpt lat="59.985004904845" lon="15.823543687519">
        <ele>82.2</ele>
        <time>2018-11-23T14:51:37Z</time>
      </trkpt>
      <trkpt lat="59.984999708067" lon="15.823530779393">
        <ele>82.2</ele>
        <time>2018-11-23T14:51:43Z</time>
      </trkpt>
      <trkpt lat="59.984997444954" lon="15.823537065818">
        <ele>82.2</ele>
        <time>2018-11-23T14:51:49Z</time>
      </trkpt>
      <trkpt lat="59.985000797714" lon="15.823534467429">
        <ele>82.4</ele>
        <time>2018-11-23T14:51:55Z</time>
      </trkpt>
      <trkpt lat="59.985012951469" lon="15.823548884297">
        <ele>82.2</ele>
        <time>2018-11-23T14:52:01Z</time>
      </trkpt>
      <trkpt lat="59.985020578998" lon="15.823550979772">
        <ele>82</ele>
        <time>2018-11-23T14:52:07Z</time>
      </trkpt>
      <trkpt lat="59.985004904845" lon="15.823600432982">
        <ele>82.2</ele>
        <time>2018-11-23T14:52:13Z</time>
      </trkpt>
      <trkpt lat="59.984984536828" lon="15.823647623079">
        <ele>82.2</ele>
        <time>2018-11-23T14:52:19Z</time>
      </trkpt>
      <trkpt lat="59.984970371417" lon="15.823639744093">
        <ele>82.2</ele>
        <time>2018-11-23T14:52:25Z</time>
      </trkpt>
      <trkpt lat="59.984975232919" lon="15.823635134048">
        <ele>82.2</ele>
        <time>2018-11-23T14:52:31Z</time>
      </trkpt>
      <trkpt lat="59.984958972033" lon="15.823691208959">
        <ele>82</ele>
        <time>2018-11-23T14:52:37Z</time>
      </trkpt>
      <trkpt lat="59.984837099207" lon="15.82390151083">
        <ele>81.8</ele>
        <time>2018-11-23T14:52:43Z</time>
      </trkpt>
      <trkpt lat="59.984704162273" lon="15.824087421372">
        <ele>82.4</ele>
        <time>2018-11-23T14:52:49Z</time>
      </trkpt>
      <trkpt lat="59.984579355782" lon="15.824263860367">
        <ele>82.6</ele>
        <time>2018-11-23T14:52:55Z</time>
      </trkpt>
      <trkpt lat="59.984437282577" lon="15.824406268848">
        <ele>81.6</ele>
        <time>2018-11-23T14:53:01Z</time>
      </trkpt>
      <trkpt lat="59.984387829367" lon="15.824447340158">
        <ele>81.2</ele>
        <time>2018-11-23T14:53:03Z</time>
      </trkpt>
      <trkpt lat="59.984255562985" lon="15.824534009004">
        <ele>80.8</ele>
        <time>2018-11-23T14:53:09Z</time>
      </trkpt>
      <trkpt lat="59.98412270987" lon="15.824573403934">
        <ele>80.6</ele>
        <time>2018-11-23T14:53:15Z</time>
      </trkpt>
      <trkpt lat="59.983983318873" lon="15.824576756694">
        <ele>81.2</ele>
        <time>2018-11-23T14:53:21Z</time>
      </trkpt>
      <trkpt lat="59.983851303948" lon="15.824501068137">
        <ele>82.2</ele>
        <time>2018-11-23T14:53:27Z</time>
      </trkpt>
      <trkpt lat="59.983747452207" lon="15.824300321632">
        <ele>83.4</ele>
        <time>2018-11-23T14:53:33Z</time>
      </trkpt>
      <trkpt lat="59.983624741191" lon="15.824119356411">
        <ele>83.6</ele>
        <time>2018-11-23T14:53:39Z</time>
      </trkpt>
      <trkpt lat="59.983504041831" lon="15.824039057809">
        <ele>84.2</ele>
        <time>2018-11-23T14:53:45Z</time>
      </trkpt>
      <trkpt lat="59.983467580566" lon="15.824073172142">
        <ele>84.4</ele>
        <time>2018-11-23T14:53:47Z</time>
      </trkpt>
      <trkpt lat="59.983392981656" lon="15.824317169251">
        <ele>85.4</ele>
        <time>2018-11-23T14:53:53Z</time>
      </trkpt>
      <trkpt lat="59.983381498453" lon="15.824364946081">
        <ele>85.8</ele>
        <time>2018-11-23T14:53:54Z</time>
      </trkpt>
      <trkpt lat="59.983321986963" lon="15.824569296803">
        <ele>87</ele>
        <time>2018-11-23T14:53:59Z</time>
      </trkpt>
      <trkpt lat="59.983307905371" lon="15.82458631206">
        <ele>87.2</ele>
        <time>2018-11-23T14:54:00Z</time>
      </trkpt>
      <trkpt lat="59.983193324798" lon="15.824491428952">
        <ele>87.2</ele>
        <time>2018-11-23T14:54:06Z</time>
      </trkpt>
      <trkpt lat="59.983037756734" lon="15.824404927744">
        <ele>86.2</ele>
        <time>2018-11-23T14:54:12Z</time>
      </trkpt>
      <trkpt lat="59.983011772844" lon="15.824397803129">
        <ele>86</ele>
        <time>2018-11-23T14:54:13Z</time>
      </trkpt>
      <trkpt lat="59.982864670499" lon="15.824374585266">
        <ele>85</ele>
        <time>2018-11-23T14:54:19Z</time>
      </trkpt>
      <trkpt lat="59.98281764804" lon="15.824365281357">
        <ele>84.8</ele>
        <time>2018-11-23T14:54:21Z</time>
      </trkpt>
      <trkpt lat="59.982661996157" lon="15.824374501447">
        <ele>84.4</ele>
        <time>2018-11-23T14:54:27Z</time>
      </trkpt>
      <trkpt lat="59.982505757541" lon="15.824406268848">
        <ele>83.8</ele>
        <time>2018-11-23T14:54:33Z</time>
      </trkpt>
      <trkpt lat="59.982364354888" lon="15.824401323527">
        <ele>83.8</ele>
        <time>2018-11-23T14:54:39Z</time>
      </trkpt>
      <trkpt lat="59.982213899783" lon="15.824515401186">
        <ele>83.6</ele>
        <time>2018-11-23T14:54:45Z</time>
      </trkpt>
      <trkpt lat="59.982135864294" lon="15.824809186781">
        <ele>83.2</ele>
        <time>2018-11-23T14:54:51Z</time>
      </trkpt>
      <trkpt lat="59.982123878177" lon="15.825090986259">
        <ele>82.8</ele>
        <time>2018-11-23T14:54:57Z</time>
      </trkpt>
      <trkpt lat="59.982158746881" lon="15.825344538734">
        <ele>82.8</ele>
        <time>2018-11-23T14:55:03Z</time>
      </trkpt>
      <trkpt lat="59.982231166497" lon="15.825600438141">
        <ele>83</ele>
        <time>2018-11-23T14:55:09Z</time>
      </trkpt>
      <trkpt lat="59.982301909733" lon="15.825816523523">
        <ele>83.8</ele>
        <time>2018-11-23T14:55:15Z</time>
      </trkpt>
      <trkpt lat="59.982372233874" lon="15.826048869791">
        <ele>84.2</ele>
        <time>2018-11-23T14:55:21Z</time>
      </trkpt>
      <trkpt lat="59.98243375702" lon="15.826293956547">
        <ele>84</ele>
        <time>2018-11-23T14:55:27Z</time>
      </trkpt>
      <trkpt lat="59.982503494428" lon="15.826557902578">
        <ele>83.6</ele>
        <time>2018-11-23T14:55:33Z</time>
      </trkpt>
      <trkpt lat="59.982609106368" lon="15.826807264103">
        <ele>83.4</ele>
        <time>2018-11-23T14:55:39Z</time>
      </trkpt>
      <trkpt lat="59.982712706652" lon="15.82706735446">
        <ele>83.2</ele>
        <time>2018-11-23T14:55:45Z</time>
      </trkpt>
      <trkpt lat="59.982818150954" lon="15.827308920818">
        <ele>83.4</ele>
        <time>2018-11-23T14:55:51Z</time>
      </trkpt>
      <trkpt lat="59.982913620795" lon="15.827549481348">
        <ele>84</ele>
        <time>2018-11-23T14:55:57Z</time>
      </trkpt>
      <trkpt lat="59.983005905514" lon="15.827756514278">
        <ele>84.4</ele>
        <time>2018-11-23T14:56:03Z</time>
      </trkpt>
      <trkpt lat="59.983035242164" lon="15.827803536737">
        <ele>84.6</ele>
        <time>2018-11-23T14:56:05Z</time>
      </trkpt>
      <trkpt lat="59.983050245765" lon="15.82781250537">
        <ele>84.8</ele>
        <time>2018-11-23T14:56:07Z</time>
      </trkpt>
      <trkpt lat="59.983046222453" lon="15.827817785967">
        <ele>85</ele>
        <time>2018-11-23T14:56:13Z</time>
      </trkpt>
      <trkpt lat="59.983078995682" lon="15.827905209184">
        <ele>85</ele>
        <time>2018-11-23T14:56:16Z</time>
      </trkpt>
      <trkpt lat="59.983108080875" lon="15.828198408046">
        <ele>85.2</ele>
        <time>2018-11-23T14:56:22Z</time>
      </trkpt>
      <trkpt lat="59.983030799757" lon="15.828492612736">
        <ele>84.8</ele>
        <time>2018-11-23T14:56:28Z</time>
      </trkpt>
      <trkpt lat="59.982949746784" lon="15.82878983491">
        <ele>84.8</ele>
        <time>2018-11-23T14:56:34Z</time>
      </trkpt>
      <trkpt lat="59.982873136218" lon="15.829038106788">
        <ele>84.2</ele>
        <time>2018-11-23T14:56:40Z</time>
      </trkpt>
      <trkpt lat="59.982868358535" lon="15.829048248887">
        <ele>84.2</ele>
        <time>2018-11-23T14:56:41Z</time>
      </trkpt>
      <trkpt lat="59.982805997199" lon="15.829293251824">
        <ele>83.8</ele>
        <time>2018-11-23T14:56:47Z</time>
      </trkpt>
      <trkpt lat="59.982779342757" lon="15.829388805484">
        <ele>83.6</ele>
        <time>2018-11-23T14:56:49Z</time>
      </trkpt>
      <trkpt lat="59.982713377204" lon="15.829637161181">
        <ele>83</ele>
        <time>2018-11-23T14:56:55Z</time>
      </trkpt>
      <trkpt lat="59.982648752755" lon="15.829922061962">
        <ele>83</ele>
        <time>2018-11-23T14:57:01Z</time>
      </trkpt>
      <trkpt lat="59.982587481066" lon="15.830228588045">
        <ele>83</ele>
        <time>2018-11-23T14:57:07Z</time>
      </trkpt>
      <trkpt lat="59.982569962895" lon="15.830323638791">
        <ele>82.6</ele>
        <time>2018-11-23T14:57:09Z</time>
      </trkpt>
      <trkpt lat="59.982503662066" lon="15.830619016947">
        <ele>82</ele>
        <time>2018-11-23T14:57:15Z</time>
      </trkpt>
      <trkpt lat="59.982461836385" lon="15.830896038742">
        <ele>82</ele>
        <time>2018-11-23T14:57:21Z</time>
      </trkpt>
      <trkpt lat="59.982419591609" lon="15.831185968663">
        <ele>82</ele>
        <time>2018-11-23T14:57:27Z</time>
      </trkpt>
      <trkpt lat="59.982377011557" lon="15.831487549425">
        <ele>82.2</ele>
        <time>2018-11-23T14:57:33Z</time>
      </trkpt>
      <trkpt lat="59.982355218617" lon="15.831795919526">
        <ele>82.4</ele>
        <time>2018-11-23T14:57:39Z</time>
      </trkpt>
      <trkpt lat="59.982339795921" lon="15.832097500288">
        <ele>82.2</ele>
        <time>2018-11-23T14:57:45Z</time>
      </trkpt>
      <trkpt lat="59.982328564175" lon="15.832401930896">
        <ele>82.4</ele>
        <time>2018-11-23T14:57:51Z</time>
      </trkpt>
      <trkpt lat="59.982322696845" lon="15.83270837316">
        <ele>82.4</ele>
        <time>2018-11-23T14:57:57Z</time>
      </trkpt>
      <trkpt lat="59.982326301062" lon="15.833008780456">
        <ele>82.8</ele>
        <time>2018-11-23T14:58:03Z</time>
      </trkpt>
      <trkpt lat="59.982321942474" lon="15.833328969036">
        <ele>82.8</ele>
        <time>2018-11-23T14:58:09Z</time>
      </trkpt>
      <trkpt lat="59.982325211415" lon="15.833660389362">
        <ele>83.2</ele>
        <time>2018-11-23T14:58:15Z</time>
      </trkpt>
      <trkpt lat="59.98233233603" lon="15.833984265978">
        <ele>83.6</ele>
        <time>2018-11-23T14:58:21Z</time>
      </trkpt>
      <trkpt lat="59.982345914708" lon="15.834306382395">
        <ele>83.8</ele>
        <time>2018-11-23T14:58:27Z</time>
      </trkpt>
      <trkpt lat="59.982361169766" lon="15.834645514069">
        <ele>83.8</ele>
        <time>2018-11-23T14:58:33Z</time>
      </trkpt>
      <trkpt lat="59.982369635485" lon="15.834765459058">
        <ele>84</ele>
        <time>2018-11-23T14:58:36Z</time>
      </trkpt>
      <trkpt lat="59.982376173367" lon="15.834997386231">
        <ele>84.4</ele>
        <time>2018-11-23T14:58:42Z</time>
      </trkpt>
      <trkpt lat="59.98239603847" lon="15.83529921845">
        <ele>84.4</ele>
        <time>2018-11-23T14:58:48Z</time>
      </trkpt>
      <trkpt lat="59.98241112589" lon="15.835613288243">
        <ele>84.2</ele>
        <time>2018-11-23T14:58:54Z</time>
      </trkpt>
      <trkpt lat="59.982434343753" lon="15.835935572298">
        <ele>84.4</ele>
        <time>2018-11-23T14:59:00Z</time>
      </trkpt>
      <trkpt lat="59.982441803644" lon="15.836043028256">
        <ele>84.6</ele>
        <time>2018-11-23T14:59:02Z</time>
      </trkpt>
      <trkpt lat="59.982467871353" lon="15.836358942067">
        <ele>84.6</ele>
        <time>2018-11-23T14:59:08Z</time>
      </trkpt>
      <trkpt lat="59.982508691206" lon="15.836667898901">
        <ele>84.4</ele>
        <time>2018-11-23T14:59:14Z</time>
      </trkpt>
      <trkpt lat="59.98251422326" lon="15.836895467486">
        <ele>84.4</ele>
        <time>2018-11-23T14:59:20Z</time>
      </trkpt>
      <trkpt lat="59.982529226861" lon="15.837204005225">
        <ele>84.4</ele>
        <time>2018-11-23T14:59:26Z</time>
      </trkpt>
      <trkpt lat="59.982556635674" lon="15.8375246129">
        <ele>84.2</ele>
        <time>2018-11-23T14:59:32Z</time>
      </trkpt>
      <trkpt lat="59.982582368107" lon="15.83783725777">
        <ele>84.4</ele>
        <time>2018-11-23T14:59:38Z</time>
      </trkpt>
      <trkpt lat="59.982608016721" lon="15.838155099418">
        <ele>84.2</ele>
        <time>2018-11-23T14:59:44Z</time>
      </trkpt>
      <trkpt lat="59.982613632594" lon="15.8382119287">
        <ele>84</ele>
        <time>2018-11-23T14:59:45Z</time>
      </trkpt>
      <trkpt lat="59.98264246633" lon="15.838538738981">
        <ele>84</ele>
        <time>2018-11-23T14:59:51Z</time>
      </trkpt>
      <trkpt lat="59.982658140483" lon="15.838870662221">
        <ele>83.8</ele>
        <time>2018-11-23T14:59:57Z</time>
      </trkpt>
      <trkpt lat="59.982676496844" lon="15.839203842746">
        <ele>83.8</ele>
        <time>2018-11-23T15:00:03Z</time>
      </trkpt>
      <trkpt lat="59.98270533058" lon="15.839514224503">
        <ele>84</ele>
        <time>2018-11-23T15:00:09Z</time>
      </trkpt>
      <trkpt lat="59.982734583411" lon="15.839832401427">
        <ele>83.8</ele>
        <time>2018-11-23T15:00:15Z</time>
      </trkpt>
      <trkpt lat="59.982777247282" lon="15.840135910026">
        <ele>83.8</ele>
        <time>2018-11-23T15:00:21Z</time>
      </trkpt>
      <trkpt lat="59.982840698265" lon="15.840271864444">
        <ele>83.6</ele>
        <time>2018-11-23T15:00:25Z</time>
      </trkpt>
      <trkpt lat="59.983000289641" lon="15.84024118669">
        <ele>83.6</ele>
        <time>2018-11-23T15:00:31Z</time>
      </trkpt>
      <trkpt lat="59.983169520202" lon="15.840142531727">
        <ele>84.2</ele>
        <time>2018-11-23T15:00:37Z</time>
      </trkpt>
      <trkpt lat="59.983326345551" lon="15.840081762952">
        <ele>84.4</ele>
        <time>2018-11-23T15:00:43Z</time>
      </trkpt>
      <trkpt lat="59.983377894236" lon="15.840059215641">
        <ele>84.6</ele>
        <time>2018-11-23T15:00:45Z</time>
      </trkpt>
      <trkpt lat="59.983531702101" lon="15.840018563426">
        <ele>85.6</ele>
        <time>2018-11-23T15:00:51Z</time>
      </trkpt>
      <trkpt lat="59.983556680163" lon="15.840007247861">
        <ele>85.6</ele>
        <time>2018-11-23T15:00:52Z</time>
      </trkpt>
      <trkpt lat="59.983711745313" lon="15.839947149638">
        <ele>86.4</ele>
        <time>2018-11-23T15:00:58Z</time>
      </trkpt>
      <trkpt lat="59.983824817144" lon="15.839895936229">
        <ele>86.8</ele>
        <time>2018-11-23T15:01:03Z</time>
      </trkpt>
      <trkpt lat="59.983966890349" lon="15.839838184938">
        <ele>87.2</ele>
        <time>2018-11-23T15:01:09Z</time>
      </trkpt>
      <trkpt lat="59.984112735409" lon="15.839779595457">
        <ele>87.8</ele>
        <time>2018-11-23T15:01:15Z</time>
      </trkpt>
      <trkpt lat="59.984137042919" lon="15.839773309032">
        <ele>88</ele>
        <time>2018-11-23T15:01:16Z</time>
      </trkpt>
      <trkpt lat="59.984279367581" lon="15.839731148075">
        <ele>88.8</ele>
        <time>2018-11-23T15:01:22Z</time>
      </trkpt>
      <trkpt lat="59.984403922615" lon="15.839658309364">
        <ele>89.4</ele>
        <time>2018-11-23T15:01:27Z</time>
      </trkpt>
      <trkpt lat="59.984542894517" lon="15.839589996879">
        <ele>89.8</ele>
        <time>2018-11-23T15:01:33Z</time>
      </trkpt>
      <trkpt lat="59.984657978004" lon="15.839546578637">
        <ele>90.4</ele>
        <time>2018-11-23T15:01:38Z</time>
      </trkpt>
      <trkpt lat="59.984678932754" lon="15.839534257244">
        <ele>90.4</ele>
        <time>2018-11-23T15:01:39Z</time>
      </trkpt>
      <trkpt lat="59.984816647371" lon="15.839451192615">
        <ele>90.6</ele>
        <time>2018-11-23T15:01:45Z</time>
      </trkpt>
      <trkpt lat="59.984947824106" lon="15.839341892639">
        <ele>91.2</ele>
        <time>2018-11-23T15:01:51Z</time>
      </trkpt>
      <trkpt lat="59.985031726925" lon="15.839249859377">
        <ele>91.4</ele>
        <time>2018-11-23T15:01:55Z</time>
      </trkpt>
      <trkpt lat="59.985156281959" lon="15.839089010716">
        <ele>91.8</ele>
        <time>2018-11-23T15:02:01Z</time>
      </trkpt>
      <trkpt lat="59.98528695578" lon="15.838923132915">
        <ele>91.6</ele>
        <time>2018-11-23T15:02:07Z</time>
      </trkpt>
      <trkpt lat="59.985416456135" lon="15.838726074446">
        <ele>92.2</ele>
        <time>2018-11-23T15:02:13Z</time>
      </trkpt>
      <trkpt lat="59.985554254571" lon="15.838538068429">
        <ele>92.4</ele>
        <time>2018-11-23T15:02:19Z</time>
      </trkpt>
      <trkpt lat="59.985681827089" lon="15.838348386032">
        <ele>92.4</ele>
        <time>2018-11-23T15:02:25Z</time>
      </trkpt>
      <trkpt lat="59.985798419318" lon="15.838146214604">
        <ele>92.8</ele>
        <time>2018-11-23T15:02:31Z</time>
      </trkpt>
      <trkpt lat="59.986008972646" lon="15.837742626119">
        <ele>94.4</ele>
        <time>2018-11-23T15:02:43Z</time>
      </trkpt>
      <trkpt lat="59.986028334835" lon="15.837702812094">
        <ele>94.6</ele>
        <time>2018-11-23T15:02:44Z</time>
      </trkpt>
      <trkpt lat="59.986137131897" lon="15.837493935146">
        <ele>95.6</ele>
        <time>2018-11-23T15:02:50Z</time>
      </trkpt>
      <trkpt lat="59.986238049973" lon="15.837299894161">
        <ele>96.6</ele>
        <time>2018-11-23T15:02:56Z</time>
      </trkpt>
      <trkpt lat="59.986343745732" lon="15.837091436308">
        <ele>96.8</ele>
        <time>2018-11-23T15:03:02Z</time>
      </trkpt>
      <trkpt lat="59.986451285509" lon="15.836873590727">
        <ele>97.6</ele>
        <time>2018-11-23T15:03:08Z</time>
      </trkpt>
      <trkpt lat="59.986469809508" lon="15.836838302928">
        <ele>97.8</ele>
        <time>2018-11-23T15:03:09Z</time>
      </trkpt>
      <trkpt lat="59.98657441562" lon="15.836582571159">
        <ele>98.2</ele>
        <time>2018-11-23T15:03:15Z</time>
      </trkpt>
      <trkpt lat="59.986640297354" lon="15.836285013709">
        <ele>98.2</ele>
        <time>2018-11-23T15:03:21Z</time>
      </trkpt>
      <trkpt lat="59.986682625949" lon="15.836079992435">
        <ele>97.8</ele>
        <time>2018-11-23T15:03:25Z</time>
      </trkpt>
      <trkpt lat="59.986798631445" lon="15.835847143253">
        <ele>97.4</ele>
        <time>2018-11-23T15:03:31Z</time>
      </trkpt>
      <trkpt lat="59.986862920618" lon="15.835731473033">
        <ele>97.4</ele>
        <time>2018-11-23T15:03:37Z</time>
      </trkpt>
      <trkpt lat="59.98687867859" lon="15.835710518283">
        <ele>97.4</ele>
        <time>2018-11-23T15:03:39Z</time>
      </trkpt>
      <trkpt lat="59.986873984726" lon="15.835703728944">
        <ele>97.2</ele>
        <time>2018-11-23T15:03:45Z</time>
      </trkpt>
      <trkpt lat="59.986870548147" lon="15.835706997885">
        <ele>96.8</ele>
        <time>2018-11-23T15:03:51Z</time>
      </trkpt>
      <trkpt lat="59.986874152364" lon="15.835729796653">
        <ele>96.8</ele>
        <time>2018-11-23T15:03:57Z</time>
      </trkpt>
      <trkpt lat="59.986869207043" lon="15.83574010639">
        <ele>97.8</ele>
        <time>2018-11-23T15:04:03Z</time>
      </trkpt>
      <trkpt lat="59.986938357718" lon="15.835620161401">
        <ele>97.8</ele>
        <time>2018-11-23T15:04:09Z</time>
      </trkpt>
      <trkpt lat="59.987005161461" lon="15.835484877535">
        <ele>98</ele>
        <time>2018-11-23T15:04:13Z</time>
      </trkpt>
      <trkpt lat="59.986939698822" lon="15.835202994238">
        <ele>98.2</ele>
        <time>2018-11-23T15:04:19Z</time>
      </trkpt>
      <trkpt lat="59.98693567551" lon="15.834855313026">
        <ele>98.6</ele>
        <time>2018-11-23T15:04:25Z</time>
      </trkpt>
      <trkpt lat="59.986968197282" lon="15.834526826365">
        <ele>98.4</ele>
        <time>2018-11-23T15:04:31Z</time>
      </trkpt>
      <trkpt lat="59.9870119508" lon="15.834211583106">
        <ele>98.6</ele>
        <time>2018-11-23T15:04:37Z</time>
      </trkpt>
      <trkpt lat="59.987035336301" lon="15.834048974246">
        <ele>98.4</ele>
        <time>2018-11-23T15:04:40Z</time>
      </trkpt>
      <trkpt lat="59.987082777855" lon="15.833746722932">
        <ele>98.6</ele>
        <time>2018-11-23T15:04:46Z</time>
      </trkpt>
      <trkpt lat="59.98713684111" lon="15.833439945392">
        <ele>98.6</ele>
        <time>2018-11-23T15:04:52Z</time>
      </trkpt>
      <trkpt lat="59.987193083659" lon="15.833275492514">
        <ele>99</ele>
        <time>2018-11-23T15:04:56Z</time>
      </trkpt>
      <trkpt lat="59.987321494367" lon="15.833074075457">
        <ele>99.8</ele>
        <time>2018-11-23T15:05:02Z</time>
      </trkpt>
      <trkpt lat="59.987360554021" lon="15.83299503414">
        <ele>100</ele>
        <time>2018-11-23T15:05:04Z</time>
      </trkpt>
      <trkpt lat="59.987476810974" lon="15.832759167474">
        <ele>100.4</ele>
        <time>2018-11-23T15:05:10Z</time>
      </trkpt>
      <trkpt lat="59.987612430116" lon="15.832627571644">
        <ele>100.6</ele>
        <time>2018-11-23T15:05:16Z</time>
      </trkpt>
      <trkpt lat="59.98777218913" lon="15.832519864229">
        <ele>100.8</ele>
        <time>2018-11-23T15:05:22Z</time>
      </trkpt>
      <trkpt lat="59.987923566244" lon="15.832380557051">
        <ele>100.6</ele>
        <time>2018-11-23T15:05:28Z</time>
      </trkpt>
      <trkpt lat="59.988064130707" lon="15.8322272521">
        <ele>100.4</ele>
        <time>2018-11-23T15:05:34Z</time>
      </trkpt>
      <trkpt lat="59.988189188655" lon="15.832028098156">
        <ele>100.4</ele>
        <time>2018-11-23T15:05:40Z</time>
      </trkpt>
      <trkpt lat="59.988299997373" lon="15.831795165155">
        <ele>101</ele>
        <time>2018-11-23T15:05:46Z</time>
      </trkpt>
      <trkpt lat="59.988316509716" lon="15.831763900668">
        <ele>101.2</ele>
        <time>2018-11-23T15:05:47Z</time>
      </trkpt>
      <trkpt lat="59.988393539377" lon="15.831549240209">
        <ele>102.4</ele>
        <time>2018-11-23T15:05:52Z</time>
      </trkpt>
      <trkpt lat="59.988460259301" lon="15.831320833434">
        <ele>103.6</ele>
        <time>2018-11-23T15:05:57Z</time>
      </trkpt>
      <trkpt lat="59.988502504077" lon="15.831150513226">
        <ele>104.8</ele>
        <time>2018-11-23T15:06:01Z</time>
      </trkpt>
      <trkpt lat="59.988568050535" lon="15.83084926774">
        <ele>105.2</ele>
        <time>2018-11-23T15:06:07Z</time>
      </trkpt>
      <trkpt lat="59.98864474492" lon="15.830575431067">
        <ele>105.2</ele>
        <time>2018-11-23T15:06:13Z</time>
      </trkpt>
      <trkpt lat="59.988752619973" lon="15.830308467552">
        <ele>104.8</ele>
        <time>2018-11-23T15:06:19Z</time>
      </trkpt>
      <trkpt lat="59.988786147573" lon="15.830123143743">
        <ele>104.6</ele>
        <time>2018-11-23T15:06:23Z</time>
      </trkpt>
      <trkpt lat="59.988750273041" lon="15.829850899631">
        <ele>104.6</ele>
        <time>2018-11-23T15:06:29Z</time>
      </trkpt>
      <trkpt lat="59.98868330166" lon="15.829544457367">
        <ele>104</ele>
        <time>2018-11-23T15:06:35Z</time>
      </trkpt>
      <trkpt lat="59.988650025517" lon="15.829407497121">
        <ele>103.8</ele>
        <time>2018-11-23T15:06:38Z</time>
      </trkpt>
      <trkpt lat="59.988597135728" lon="15.829109604395">
        <ele>103</ele>
        <time>2018-11-23T15:06:44Z</time>
      </trkpt>
      <trkpt lat="59.988541396093" lon="15.828827218184">
        <ele>102.8</ele>
        <time>2018-11-23T15:06:50Z</time>
      </trkpt>
      <trkpt lat="59.988524213198" lon="15.828728060307">
        <ele>102.6</ele>
        <time>2018-11-23T15:06:52Z</time>
      </trkpt>
      <trkpt lat="59.988480711137" lon="15.828440393499">
        <ele>101.6</ele>
        <time>2018-11-23T15:06:58Z</time>
      </trkpt>
      <trkpt lat="59.988474676169" lon="15.828391107927">
        <ele>101.6</ele>
        <time>2018-11-23T15:06:59Z</time>
      </trkpt>
      <trkpt lat="59.988457409455" lon="15.828286166539">
        <ele>101.2</ele>
        <time>2018-11-23T15:07:01Z</time>
      </trkpt>
      <trkpt lat="59.988425809692" lon="15.828107212974">
        <ele>100.4</ele>
        <time>2018-11-23T15:07:05Z</time>
      </trkpt>
      <trkpt lat="59.988404100571" lon="15.828064381465">
        <ele>100.2</ele>
        <time>2018-11-23T15:07:07Z</time>
      </trkpt>
      <trkpt lat="59.988275522225" lon="15.828036134462">
        <ele>100</ele>
        <time>2018-11-23T15:07:13Z</time>
      </trkpt>
      <trkpt lat="59.988103693275" lon="15.828059855239">
        <ele>100</ele>
        <time>2018-11-23T15:07:19Z</time>
      </trkpt>
      <trkpt lat="59.987932953972" lon="15.828076451401">
        <ele>100</ele>
        <time>2018-11-23T15:07:25Z</time>
      </trkpt>
      <trkpt lat="59.987762633764" lon="15.828048539674">
        <ele>100.2</ele>
        <time>2018-11-23T15:07:31Z</time>
      </trkpt>
      <trkpt lat="59.987591726823" lon="15.828028590752">
        <ele>100.2</ele>
        <time>2018-11-23T15:07:37Z</time>
      </trkpt>
      <trkpt lat="59.987432219266" lon="15.827951058177">
        <ele>100.2</ele>
        <time>2018-11-23T15:07:43Z</time>
      </trkpt>
      <trkpt lat="59.987256283185" lon="15.827892552515">
        <ele>100</ele>
        <time>2018-11-23T15:07:49Z</time>
      </trkpt>
      <trkpt lat="59.98707816781" lon="15.827853744318">
        <ele>100.4</ele>
        <time>2018-11-23T15:07:55Z</time>
      </trkpt>
      <trkpt lat="59.98690214791" lon="15.827778893951">
        <ele>100.4</ele>
        <time>2018-11-23T15:08:01Z</time>
      </trkpt>
      <trkpt lat="59.986744484371" lon="15.827691303096">
        <ele>100.2</ele>
        <time>2018-11-23T15:08:07Z</time>
      </trkpt>
      <trkpt lat="59.986595118913" lon="15.827621733326">
        <ele>100.2</ele>
        <time>2018-11-23T15:08:13Z</time>
      </trkpt>
      <trkpt lat="59.986440808134" lon="15.827552163556">
        <ele>100.6</ele>
        <time>2018-11-23T15:08:19Z</time>
      </trkpt>
      <trkpt lat="59.986289347201" lon="15.827513942092">
        <ele>100.8</ele>
        <time>2018-11-23T15:08:25Z</time>
      </trkpt>
      <trkpt lat="59.986174515171" lon="15.827478654293">
        <ele>100.6</ele>
        <time>2018-11-23T15:08:31Z</time>
      </trkpt>
      <trkpt lat="59.986156074991" lon="15.827462225769">
        <ele>100.6</ele>
        <time>2018-11-23T15:08:37Z</time>
      </trkpt>
      <trkpt lat="59.98610335284" lon="15.827436577155">
        <ele>100.6</ele>
        <time>2018-11-23T15:08:42Z</time>
      </trkpt>
      <trkpt lat="59.985961447273" lon="15.827341861685">
        <ele>99.6</ele>
        <time>2018-11-23T15:08:48Z</time>
      </trkpt>
      <trkpt lat="59.985912077882" lon="15.827311938302">
        <ele>99</ele>
        <time>2018-11-23T15:08:50Z</time>
      </trkpt>
      <trkpt lat="59.985845441777" lon="15.827258294142">
        <ele>98</ele>
        <time>2018-11-23T15:08:53Z</time>
      </trkpt>
      <trkpt lat="59.985785259735" lon="15.827164500681">
        <ele>97</ele>
        <time>2018-11-23T15:08:56Z</time>
      </trkpt>
      <trkpt lat="59.985772603066" lon="15.827116891489">
        <ele>96.6</ele>
        <time>2018-11-23T15:08:57Z</time>
      </trkpt>
      <trkpt lat="59.985759527302" lon="15.827019409992">
        <ele>96</ele>
        <time>2018-11-23T15:08:59Z</time>
      </trkpt>
      <trkpt lat="59.985753324696" lon="15.826765773698">
        <ele>94.8</ele>
        <time>2018-11-23T15:09:04Z</time>
      </trkpt>
      <trkpt lat="59.985772603066" lon="15.826521608951">
        <ele>93.8</ele>
        <time>2018-11-23T15:09:09Z</time>
      </trkpt>
      <trkpt lat="59.985793473997" lon="15.826373081683">
        <ele>93</ele>
        <time>2018-11-23T15:09:12Z</time>
      </trkpt>
      <trkpt lat="59.985802526449" lon="15.826268475571">
        <ele>92.6</ele>
        <time>2018-11-23T15:09:14Z</time>
      </trkpt>
      <trkpt lat="59.985833874755" lon="15.825985837903">
        <ele>91.6</ele>
        <time>2018-11-23T15:09:19Z</time>
      </trkpt>
      <trkpt lat="59.985895397901" lon="15.825656596871">
        <ele>90.8</ele>
        <time>2018-11-23T15:09:25Z</time>
      </trkpt>
      <trkpt lat="59.985905120905" lon="15.825606808385">
        <ele>90.4</ele>
        <time>2018-11-23T15:09:26Z</time>
      </trkpt>
      <trkpt lat="59.98595834597" lon="15.825348478227">
        <ele>89.2</ele>
        <time>2018-11-23T15:09:32Z</time>
      </trkpt>
      <trkpt lat="59.985992879398" lon="15.825159969296">
        <ele>88.2</ele>
        <time>2018-11-23T15:09:36Z</time>
      </trkpt>
      <trkpt lat="59.986031771414" lon="15.824905997726">
        <ele>87.2</ele>
        <time>2018-11-23T15:09:42Z</time>
      </trkpt>
      <trkpt lat="59.986044008988" lon="15.824818239233">
        <ele>87</ele>
        <time>2018-11-23T15:09:44Z</time>
      </trkpt>
      <trkpt lat="59.986092204913" lon="15.824652780527">
        <ele>85.8</ele>
        <time>2018-11-23T15:09:48Z</time>
      </trkpt>
      <trkpt lat="59.986099497166" lon="15.824624701162">
        <ele>85.6</ele>
        <time>2018-11-23T15:09:49Z</time>
      </trkpt>
      <trkpt lat="59.986100335356" lon="15.824570134993">
        <ele>85.2</ele>
        <time>2018-11-23T15:09:51Z</time>
      </trkpt>
      <trkpt lat="59.986082565728" lon="15.824475587161">
        <ele>84.8</ele>
        <time>2018-11-23T15:09:57Z</time>
      </trkpt>
      <trkpt lat="59.986085834669" lon="15.824415572757">
        <ele>84.6</ele>
        <time>2018-11-23T15:10:03Z</time>
      </trkpt>
      <trkpt lat="59.986088097782" lon="15.824366287185">
        <ele>84.6</ele>
        <time>2018-11-23T15:10:05Z</time>
      </trkpt>
      <trkpt lat="59.98608239809" lon="15.824258831227">
        <ele>84.6</ele>
        <time>2018-11-23T15:10:09Z</time>
      </trkpt>
      <trkpt lat="59.986064712281" lon="15.824215077709">
        <ele>84.6</ele>
        <time>2018-11-23T15:10:11Z</time>
      </trkpt>
      <trkpt lat="59.986019617659" lon="15.824089935942">
        <ele>84</ele>
        <time>2018-11-23T15:10:17Z</time>
      </trkpt>
      <trkpt lat="59.986015091433" lon="15.824079710024">
        <ele>83.8</ele>
        <time>2018-11-23T15:10:18Z</time>
      </trkpt>
      <trkpt lat="59.986005536067" lon="15.824075519074">
        <ele>83.6</ele>
        <time>2018-11-23T15:10:19Z</time>
      </trkpt>
      <trkpt lat="59.985993130855" lon="15.824060347835">
        <ele>83.6</ele>
        <time>2018-11-23T15:10:20Z</time>
      </trkpt>
      <trkpt lat="59.985929679872" lon="15.823974768636">
        <ele>83.2</ele>
        <time>2018-11-23T15:10:26Z</time>
      </trkpt>
      <trkpt lat="59.985888692381" lon="15.823914251318">
        <ele>83.2</ele>
        <time>2018-11-23T15:10:30Z</time>
      </trkpt>
      <trkpt lat="59.985800933888" lon="15.823831857241">
        <ele>83</ele>
        <time>2018-11-23T15:10:36Z</time>
      </trkpt>
      <trkpt lat="59.9857546658" lon="15.823672852598">
        <ele>83.2</ele>
        <time>2018-11-23T15:10:42Z</time>
      </trkpt>
      <trkpt lat="59.985715354689" lon="15.823478811613">
        <ele>83.6</ele>
        <time>2018-11-23T15:10:48Z</time>
      </trkpt>
      <trkpt lat="59.985685179849" lon="15.823191312443">
        <ele>83.2</ele>
        <time>2018-11-23T15:10:54Z</time>
      </trkpt>
      <trkpt lat="59.985644527634" lon="15.822881098324">
        <ele>82.6</ele>
        <time>2018-11-23T15:11:00Z</time>
      </trkpt>
      <trkpt lat="59.985636648648" lon="15.822828208535">
        <ele>82.6</ele>
        <time>2018-11-23T15:11:01Z</time>
      </trkpt>
      <trkpt lat="59.985570515457" lon="15.822544984134">
        <ele>82.2</ele>
        <time>2018-11-23T15:11:07Z</time>
      </trkpt>
      <trkpt lat="59.985500861868" lon="15.822323869612">
        <ele>82</ele>
        <time>2018-11-23T15:11:12Z</time>
      </trkpt>
      <trkpt lat="59.985500442773" lon="15.822040309935">
        <ele>82</ele>
        <time>2018-11-23T15:11:18Z</time>
      </trkpt>
      <trkpt lat="59.985536904038" lon="15.821726072504">
        <ele>82.6</ele>
        <time>2018-11-23T15:11:24Z</time>
      </trkpt>
      <trkpt lat="59.985568922896" lon="15.821426754855">
        <ele>82.2</ele>
        <time>2018-11-23T15:11:30Z</time>
      </trkpt>
      <trkpt lat="59.985569928724" lon="15.82123439025">
        <ele>82</ele>
        <time>2018-11-23T15:11:34Z</time>
      </trkpt>
      <trkpt lat="59.985612257319" lon="15.821130789966">
        <ele>81.8</ele>
        <time>2018-11-23T15:11:39Z</time>
      </trkpt>
      <trkpt lat="59.985635475182" lon="15.821135902925">
        <ele>81.6</ele>
        <time>2018-11-23T15:11:41Z</time>
      </trkpt>
      <trkpt lat="59.985738991647" lon="15.82116230591">
        <ele>81.6</ele>
        <time>2018-11-23T15:11:47Z</time>
      </trkpt>
      <trkpt lat="59.985895900815" lon="15.821209663645">
        <ele>82</ele>
        <time>2018-11-23T15:11:53Z</time>
      </trkpt>
      <trkpt lat="59.986045601549" lon="15.821270516239">
        <ele>82.2</ele>
        <time>2018-11-23T15:11:59Z</time>
      </trkpt>
      <trkpt lat="59.986113494939" lon="15.821292141541">
        <ele>82.6</ele>
        <time>2018-11-23T15:12:02Z</time>
      </trkpt>
      <trkpt lat="59.986249030262" lon="15.821368919745">
        <ele>83.4</ele>
        <time>2018-11-23T15:12:08Z</time>
      </trkpt>
      <trkpt lat="59.986387331612" lon="15.821527924388">
        <ele>83.2</ele>
        <time>2018-11-23T15:12:14Z</time>
      </trkpt>
      <trkpt lat="59.986404933602" lon="15.821547370396">
        <ele>83.2</ele>
        <time>2018-11-23T15:12:15Z</time>
      </trkpt>
    </trkseg>
  </trk>
</gpx>